Volente, Texas
Current Conditions -  °F | °C
As of 11:35 AM on Monday 22 Dec 2014 (Local Time) from KRYW Reporting Station
Clear Clear  
Wind Chill: 69°   Ceiling: Unl
Heat Index: 69°   Visibility: 10mi
Dew Point: 49°   Wind: 6mph
Humidity: 49%   Direction: 230°SW
Pressure: 29.7"   Gusts: NA
Location:  30.558°N, 97.9247°W
Report Text: KRYW 221735Z AUTO 23005KT 10SM CLR 20/09 A2970 RMK AO2 T02040094
Loading
Personal Weather Stations






























Interactive Weather Map New forecast layout! Learn more

10-Day Weather Forecast

Advertisements
Track Severe Weather on mobile